sensor_id;sensor_type;location;lat;lon;timestamp;temperature;humidity
26304;DHT22;57113;48.680;8.890;2023-04-06T00:01:01;10.90;99.90
26304;DHT22;57113;48.680;8.890;2023-04-06T00:03:27;10.90;99.90
26304;DHT22;57113;48.680;8.890;2023-04-06T00:05:53;10.90;99.90
26304;DHT22;57113;48.680;8.890;2023-04-06T00:08:18;10.90;99.90
26304;DHT22;57113;48.680;8.890;2023-04-06T00:10:46;10.90;99.90
26304;DHT22;57113;48.680;8.890;2023-04-06T00:13:12;10.80;99.90
26304;DHT22;57113;48.680;8.890;2023-04-06T00:15:38;10.90;99.90
26304;DHT22;57113;48.680;8.890;2023-04-06T00:18:03;10.80;99.90
26304;DHT22;57113;48.680;8.890;2023-04-06T00:20:29;10.80;99.90
26304;DHT22;57113;48.680;8.890;2023-04-06T00:22:55;10.80;99.90
26304;DHT22;57113;48.680;8.890;2023-04-06T00:25:20;10.80;99.90
26304;DHT22;57113;48.680;8.890;2023-04-06T00:27:46;10.90;99.90
26304;DHT22;57113;48.680;8.890;2023-04-06T00:30:12;10.80;99.90
26304;DHT22;57113;48.680;8.890;2023-04-06T00:32:39;10.80;99.90
26304;DHT22;57113;48.680;8.890;2023-04-06T00:35:05;10.80;99.90
26304;DHT22;57113;48.680;8.890;2023-04-06T00:37:31;10.80;99.90
26304;DHT22;57113;48.680;8.890;2023-04-06T00:39:57;10.80;99.90
26304;DHT22;57113;48.680;8.890;2023-04-06T00:42:23;10.80;99.90
26304;DHT22;57113;48.680;8.890;2023-04-06T00:44:58;10.80;99.90
26304;DHT22;57113;48.680;8.890;2023-04-06T00:47:25;10.80;99.90
26304;DHT22;57113;48.680;8.890;2023-04-06T00:49:51;10.80;99.90
26304;DHT22;57113;48.680;8.890;2023-04-06T00:52:17;10.80;99.90
26304;DHT22;57113;48.680;8.890;2023-04-06T00:54:43;10.80;99.90
26304;DHT22;57113;48.680;8.890;2023-04-06T00:57:13;10.80;99.90
26304;DHT22;57113;48.680;8.890;2023-04-06T00:59:39;10.80;99.90
26304;DHT22;57113;48.680;8.890;2023-04-06T01:02:05;10.80;99.90
26304;DHT22;57113;48.680;8.890;2023-04-06T01:04:31;10.80;99.90
26304;DHT22;57113;48.680;8.890;2023-04-06T01:06:57;10.80;99.90
26304;DHT22;57113;48.680;8.890;2023-04-06T01:09:23;10.80;99.90
26304;DHT22;57113;48.680;8.890;2023-04-06T01:11:49;10.80;99.90
26304;DHT22;57113;48.680;8.890;2023-04-06T01:14:15;10.80;99.90
26304;DHT22;57113;48.680;8.890;2023-04-06T01:16:41;10.70;99.90
26304;DHT22;57113;48.680;8.890;2023-04-06T01:19:09;10.80;99.90
26304;DHT22;57113;48.680;8.890;2023-04-06T01:21:36;10.80;99.90
26304;DHT22;57113;48.680;8.890;2023-04-06T01:24:02;10.70;99.90
26304;DHT22;57113;48.680;8.890;2023-04-06T01:26:28;10.70;99.90
26304;DHT22;57113;48.680;8.890;2023-04-06T01:28:55;10.80;99.90
26304;DHT22;57113;48.680;8.890;2023-04-06T01:31:21;10.70;99.90
26304;DHT22;57113;48.680;8.890;2023-04-06T01:33:47;10.70;99.90
26304;DHT22;57113;48.680;8.890;2023-04-06T01:36:12;10.70;99.90
26304;DHT22;57113;48.680;8.890;2023-04-06T01:38:38;10.70;99.90
26304;DHT22;57113;48.680;8.890;2023-04-06T01:41:04;10.70;99.90
26304;DHT22;57113;48.680;8.890;2023-04-06T01:43:30;10.70;99.90
26304;DHT22;57113;48.680;8.890;2023-04-06T01:45:55;10.70;99.90
26304;DHT22;57113;48.680;8.890;2023-04-06T01:48:21;10.70;99.90
26304;DHT22;57113;48.680;8.890;2023-04-06T01:50:47;10.70;99.90
26304;DHT22;57113;48.680;8.890;2023-04-06T01:53:13;10.70;99.90
26304;DHT22;57113;48.680;8.890;2023-04-06T01:55:38;10.70;99.90
26304;DHT22;57113;48.680;8.890;2023-04-06T01:58:04;10.70;99.90
26304;DHT22;57113;48.680;8.890;2023-04-06T02:00:30;10.70;99.90
26304;DHT22;57113;48.680;8.890;2023-04-06T02:02:56;10.70;99.90
26304;DHT22;57113;48.680;8.890;2023-04-06T02:05:21;10.80;99.90
26304;DHT22;57113;48.680;8.890;2023-04-06T02:07:47;11.10;99.90
26304;DHT22;57113;48.680;8.890;2023-04-06T02:10:15;11.20;99.80
26304;DHT22;57113;48.680;8.890;2023-04-06T02:12:40;11.20;99.80
26304;DHT22;57113;48.680;8.890;2023-04-06T02:15:06;11.10;99.80
26304;DHT22;57113;48.680;8.890;2023-04-06T02:17:32;11.00;99.90
26304;DHT22;57113;48.680;8.890;2023-04-06T02:19:58;11.00;99.90
26304;DHT22;57113;48.680;8.890;2023-04-06T02:22:23;10.90;99.90
26304;DHT22;57113;48.680;8.890;2023-04-06T02:24:49;10.80;99.90
26304;DHT22;57113;48.680;8.890;2023-04-06T02:27:15;10.80;99.90
26304;DHT22;57113;48.680;8.890;2023-04-06T02:29:41;10.80;99.90
26304;DHT22;57113;48.680;8.890;2023-04-06T02:32:07;10.70;99.90
26304;DHT22;57113;48.680;8.890;2023-04-06T02:34:33;10.70;99.90
26304;DHT22;57113;48.680;8.890;2023-04-06T02:36:58;10.70;99.90
26304;DHT22;57113;48.680;8.890;2023-04-06T02:39:24;10.60;99.90
26304;DHT22;57113;48.680;8.890;2023-04-06T02:41:50;10.70;99.90
26304;DHT22;57113;48.680;8.890;2023-04-06T02:44:16;10.70;99.90
26304;DHT22;57113;48.680;8.890;2023-04-06T02:46:41;10.60;99.90
26304;DHT22;57113;48.680;8.890;2023-04-06T02:49:07;10.60;99.90
26304;DHT22;57113;48.680;8.890;2023-04-06T02:51:33;10.60;99.90
26304;DHT22;57113;48.680;8.890;2023-04-06T02:53:59;10.60;99.90
26304;DHT22;57113;48.680;8.890;2023-04-06T02:56:24;10.60;99.90
26304;DHT22;57113;48.680;8.890;2023-04-06T02:58:51;10.60;99.90
26304;DHT22;57113;48.680;8.890;2023-04-06T03:01:17;10.60;99.90
26304;DHT22;57113;48.680;8.890;2023-04-06T03:03:44;10.60;99.90
26304;DHT22;57113;48.680;8.890;2023-04-06T03:06:09;10.80;99.90
26304;DHT22;57113;48.680;8.890;2023-04-06T03:08:35;11.10;99.80
26304;DHT22;57113;48.680;8.890;2023-04-06T03:11:02;11.00;99.60
26304;DHT22;57113;48.680;8.890;2023-04-06T03:13:28;11.00;99.60
26304;DHT22;57113;48.680;8.890;2023-04-06T03:15:53;10.90;99.70
26304;DHT22;57113;48.680;8.890;2023-04-06T03:18:22;10.90;99.80
26304;DHT22;57113;48.680;8.890;2023-04-06T03:20:48;10.80;99.80
26304;DHT22;57113;48.680;8.890;2023-04-06T03:23:14;10.70;99.80
26304;DHT22;57113;48.680;8.890;2023-04-06T03:25:39;10.70;99.90
26304;DHT22;57113;48.680;8.890;2023-04-06T03:28:05;10.70;99.90
26304;DHT22;57113;48.680;8.890;2023-04-06T03:30:31;10.60;99.90
26304;DHT22;57113;48.680;8.890;2023-04-06T03:32:57;10.60;99.90
26304;DHT22;57113;48.680;8.890;2023-04-06T03:35:22;10.60;99.90
26304;DHT22;57113;48.680;8.890;2023-04-06T03:37:48;10.50;99.90
26304;DHT22;57113;48.680;8.890;2023-04-06T03:40:14;10.50;99.90
26304;DHT22;57113;48.680;8.890;2023-04-06T03:42:39;10.50;99.90
26304;DHT22;57113;48.680;8.890;2023-04-06T03:45:05;10.50;99.90
26304;DHT22;57113;48.680;8.890;2023-04-06T03:47:31;10.50;99.90
26304;DHT22;57113;48.680;8.890;2023-04-06T03:49:57;10.50;99.90
26304;DHT22;57113;48.680;8.890;2023-04-06T03:52:22;10.40;99.90
26304;DHT22;57113;48.680;8.890;2023-04-06T03:54:48;10.40;99.90
26304;DHT22;57113;48.680;8.890;2023-04-06T03:57:14;10.40;99.90
26304;DHT22;57113;48.680;8.890;2023-04-06T03:59:40;10.40;99.90
26304;DHT22;57113;48.680;8.890;2023-04-06T04:02:06;10.40;99.90
26304;DHT22;57113;48.680;8.890;2023-04-06T04:04:31;10.50;99.90
26304;DHT22;57113;48.680;8.890;2023-04-06T04:06:57;10.80;99.70
26304;DHT22;57113;48.680;8.890;2023-04-06T04:09:24;11.00;99.50
26304;DHT22;57113;48.680;8.890;2023-04-06T04:11:50;10.90;99.30
26304;DHT22;57113;48.680;8.890;2023-04-06T04:14:16;10.90;99.40
26304;DHT22;57113;48.680;8.890;2023-04-06T04:16:41;10.80;99.50
26304;DHT22;57113;48.680;8.890;2023-04-06T04:19:08;10.70;99.60
26304;DHT22;57113;48.680;8.890;2023-04-06T04:21:41;10.70;99.60
26304;DHT22;57113;48.680;8.890;2023-04-06T04:24:07;10.60;99.60
26304;DHT22;57113;48.680;8.890;2023-04-06T04:26:32;10.60;99.70
26304;DHT22;57113;48.680;8.890;2023-04-06T04:28:58;10.60;99.70
26304;DHT22;57113;48.680;8.890;2023-04-06T04:31:23;10.50;99.70
26304;DHT22;57113;48.680;8.890;2023-04-06T04:33:49;10.50;99.70
26304;DHT22;57113;48.680;8.890;2023-04-06T04:36:15;10.50;99.70
26304;DHT22;57113;48.680;8.890;2023-04-06T04:38:41;10.40;99.70
26304;DHT22;57113;48.680;8.890;2023-04-06T04:41:06;10.40;99.70
26304;DHT22;57113;48.680;8.890;2023-04-06T04:43:32;10.40;99.70
26304;DHT22;57113;48.680;8.890;2023-04-06T04:45:58;10.40;99.70
26304;DHT22;57113;48.680;8.890;2023-04-06T04:48:24;10.30;99.70
26304;DHT22;57113;48.680;8.890;2023-04-06T04:50:50;10.40;99.80
26304;DHT22;57113;48.680;8.890;2023-04-06T04:53:16;10.30;99.70
26304;DHT22;57113;48.680;8.890;2023-04-06T04:55:42;10.30;99.70
26304;DHT22;57113;48.680;8.890;2023-04-06T04:58:07;10.30;99.80
26304;DHT22;57113;48.680;8.890;2023-04-06T05:00:34;10.30;99.70
26304;DHT22;57113;48.680;8.890;2023-04-06T05:03:00;10.30;99.70
26304;DHT22;57113;48.680;8.890;2023-04-06T05:05:25;10.60;99.70
26304;DHT22;57113;48.680;8.890;2023-04-06T05:07:51;10.80;99.30
26304;DHT22;57113;48.680;8.890;2023-04-06T05:10:17;10.90;99.20
26304;DHT22;57113;48.680;8.890;2023-04-06T05:12:42;10.80;99.20
26304;DHT22;57113;48.680;8.890;2023-04-06T05:15:09;10.70;99.20
26304;DHT22;57113;48.680;8.890;2023-04-06T05:17:35;10.70;99.30
26304;DHT22;57113;48.680;8.890;2023-04-06T05:20:00;10.60;99.30
26304;DHT22;57113;48.680;8.890;2023-04-06T05:22:26;10.60;99.70
26304;DHT22;57113;48.680;8.890;2023-04-06T05:24:52;10.50;99.40
26304;DHT22;57113;48.680;8.890;2023-04-06T05:27:17;10.40;99.40
26304;DHT22;57113;48.680;8.890;2023-04-06T05:29:43;10.40;99.40
26304;DHT22;57113;48.680;8.890;2023-04-06T05:32:09;10.40;99.40
26304;DHT22;57113;48.680;8.890;2023-04-06T05:34:34;10.30;99.50
26304;DHT22;57113;48.680;8.890;2023-04-06T05:37:00;10.30;99.50
26304;DHT22;57113;48.680;8.890;2023-04-06T05:39:26;10.30;99.60
26304;DHT22;57113;48.680;8.890;2023-04-06T05:41:52;10.30;99.60
26304;DHT22;57113;48.680;8.890;2023-04-06T05:44:17;10.20;99.60
26304;DHT22;57113;48.680;8.890;2023-04-06T05:46:43;10.30;99.60
26304;DHT22;57113;48.680;8.890;2023-04-06T05:49:08;10.30;99.60
26304;DHT22;57113;48.680;8.890;2023-04-06T05:51:34;10.30;99.70
26304;DHT22;57113;48.680;8.890;2023-04-06T05:54:00;9.90;95.60
26304;DHT22;57113;48.680;8.890;2023-04-06T05:56:25;9.60;96.30
26304;DHT22;57113;48.680;8.890;2023-04-06T05:58:51;9.50;96.90
26304;DHT22;57113;48.680;8.890;2023-04-06T06:01:17;9.50;97.40
26304;DHT22;57113;48.680;8.890;2023-04-06T06:03:43;9.60;97.90
26304;DHT22;57113;48.680;8.890;2023-04-06T06:06:08;9.80;98.00
26304;DHT22;57113;48.680;8.890;2023-04-06T06:08:34;10.00;97.80
26304;DHT22;57113;48.680;8.890;2023-04-06T06:11:01;10.00;97.80
26304;DHT22;57113;48.680;8.890;2023-04-06T06:13:27;10.00;98.00
26304;DHT22;57113;48.680;8.890;2023-04-06T06:15:53;10.00;98.10
26304;DHT22;57113;48.680;8.890;2023-04-06T06:18:18;10.00;98.30
26304;DHT22;57113;48.680;8.890;2023-04-06T06:20:44;10.00;98.40
26304;DHT22;57113;48.680;8.890;2023-04-06T06:23:10;10.00;98.50
26304;DHT22;57113;48.680;8.890;2023-04-06T06:25:36;9.90;98.60
26304;DHT22;57113;48.680;8.890;2023-04-06T06:28:01;10.00;98.70
26304;DHT22;57113;48.680;8.890;2023-04-06T06:30:27;9.90;98.70
26304;DHT22;57113;48.680;8.890;2023-04-06T06:32:53;9.90;98.80
26304;DHT22;57113;48.680;8.890;2023-04-06T06:35:18;9.90;98.80
26304;DHT22;57113;48.680;8.890;2023-04-06T06:37:44;9.90;98.90
26304;DHT22;57113;48.680;8.890;2023-04-06T06:40:10;10.00;99.00
26304;DHT22;57113;48.680;8.890;2023-04-06T06:42:38;9.90;99.10
26304;DHT22;57113;48.680;8.890;2023-04-06T06:45:07;9.90;99.10
26304;DHT22;57113;48.680;8.890;2023-04-06T06:47:32;9.90;99.20
26304;DHT22;57113;48.680;8.890;2023-04-06T06:49:58;10.00;99.30
26304;DHT22;57113;48.680;8.890;2023-04-06T06:52:24;10.00;99.30
26304;DHT22;57113;48.680;8.890;2023-04-06T06:54:49;10.00;99.30
26304;DHT22;57113;48.680;8.890;2023-04-06T06:57:15;10.10;99.40
26304;DHT22;57113;48.680;8.890;2023-04-06T06:59:41;10.10;99.40
26304;DHT22;57113;48.680;8.890;2023-04-06T07:02:07;10.10;99.40
26304;DHT22;57113;48.680;8.890;2023-04-06T07:04:32;10.10;99.50
26304;DHT22;57113;48.680;8.890;2023-04-06T07:06:58;10.20;99.50
26304;DHT22;57113;48.680;8.890;2023-04-06T07:09:24;10.20;99.50
26304;DHT22;57113;48.680;8.890;2023-04-06T07:11:50;10.20;99.50
26304;DHT22;57113;48.680;8.890;2023-04-06T07:14:16;10.20;99.50
26304;DHT22;57113;48.680;8.890;2023-04-06T07:16:41;10.20;99.60
26304;DHT22;57113;48.680;8.890;2023-04-06T07:19:07;10.20;99.60
26304;DHT22;57113;48.680;8.890;2023-04-06T07:21:35;10.30;99.60
26304;DHT22;57113;48.680;8.890;2023-04-06T07:24:01;10.30;99.70
26304;DHT22;57113;48.680;8.890;2023-04-06T07:26:27;10.30;99.70
26304;DHT22;57113;48.680;8.890;2023-04-06T07:28:53;10.30;99.70
26304;DHT22;57113;48.680;8.890;2023-04-06T07:31:19;10.30;99.80
26304;DHT22;57113;48.680;8.890;2023-04-06T07:33:45;10.30;99.80
26304;DHT22;57113;48.680;8.890;2023-04-06T07:36:12;10.40;99.80
26304;DHT22;57113;48.680;8.890;2023-04-06T07:38:38;10.40;99.80
26304;DHT22;57113;48.680;8.890;2023-04-06T07:41:04;10.40;99.90
26304;DHT22;57113;48.680;8.890;2023-04-06T07:43:30;10.40;99.90
26304;DHT22;57113;48.680;8.890;2023-04-06T07:45:56;10.40;99.90
26304;DHT22;57113;48.680;8.890;2023-04-06T07:48:23;10.50;99.90
26304;DHT22;57113;48.680;8.890;2023-04-06T07:50:48;10.50;99.90
26304;DHT22;57113;48.680;8.890;2023-04-06T07:53:15;10.50;99.90
26304;DHT22;57113;48.680;8.890;2023-04-06T07:55:40;10.50;99.90
26304;DHT22;57113;48.680;8.890;2023-04-06T07:58:06;10.60;99.90
26304;DHT22;57113;48.680;8.890;2023-04-06T08:00:32;10.60;99.90
26304;DHT22;57113;48.680;8.890;2023-04-06T08:02:58;10.60;99.90
26304;DHT22;57113;48.680;8.890;2023-04-06T08:05:23;10.60;99.90
26304;DHT22;57113;48.680;8.890;2023-04-06T08:07:49;10.60;99.90
26304;DHT22;57113;48.680;8.890;2023-04-06T08:10:15;10.60;99.90
26304;DHT22;57113;48.680;8.890;2023-04-06T08:12:41;10.70;99.90
26304;DHT22;57113;48.680;8.890;2023-04-06T08:15:06;10.70;99.90
26304;DHT22;57113;48.680;8.890;2023-04-06T08:17:32;10.70;99.90
26304;DHT22;57113;48.680;8.890;2023-04-06T08:19:59;10.70;99.90
26304;DHT22;57113;48.680;8.890;2023-04-06T08:22:26;10.80;99.90
26304;DHT22;57113;48.680;8.890;2023-04-06T08:24:51;10.70;99.90
26304;DHT22;57113;48.680;8.890;2023-04-06T08:27:17;10.80;99.90
26304;DHT22;57113;48.680;8.890;2023-04-06T08:29:43;10.80;99.90
26304;DHT22;57113;48.680;8.890;2023-04-06T08:32:09;10.80;99.90
26304;DHT22;57113;48.680;8.890;2023-04-06T08:34:34;10.80;99.90
26304;DHT22;57113;48.680;8.890;2023-04-06T08:37:00;10.80;99.90
26304;DHT22;57113;48.680;8.890;2023-04-06T08:39:26;10.90;99.90
26304;DHT22;57113;48.680;8.890;2023-04-06T08:41:53;10.90;99.90
26304;DHT22;57113;48.680;8.890;2023-04-06T08:44:22;10.90;99.90
26304;DHT22;57113;48.680;8.890;2023-04-06T08:46:48;10.90;99.90
26304;DHT22;57113;48.680;8.890;2023-04-06T08:49:16;10.90;99.90
26304;DHT22;57113;48.680;8.890;2023-04-06T08:51:42;11.00;99.90
26304;DHT22;57113;48.680;8.890;2023-04-06T08:54:08;11.00;99.90
26304;DHT22;57113;48.680;8.890;2023-04-06T08:56:37;11.00;99.90
26304;DHT22;57113;48.680;8.890;2023-04-06T08:59:05;11.00;99.90
26304;DHT22;57113;48.680;8.890;2023-04-06T09:01:34;11.00;99.90
26304;DHT22;57113;48.680;8.890;2023-04-06T09:04:04;11.00;99.90
26304;DHT22;57113;48.680;8.890;2023-04-06T09:06:34;11.10;99.90
26304;DHT22;57113;48.680;8.890;2023-04-06T09:09:00;11.10;99.90
26304;DHT22;57113;48.680;8.890;2023-04-06T09:11:25;11.10;99.90
26304;DHT22;57113;48.680;8.890;2023-04-06T09:13:55;11.10;99.90
26304;DHT22;57113;48.680;8.890;2023-04-06T09:16:23;11.10;99.90
26304;DHT22;57113;48.680;8.890;2023-04-06T09:18:49;11.10;99.90
26304;DHT22;57113;48.680;8.890;2023-04-06T09:21:19;11.10;99.90
26304;DHT22;57113;48.680;8.890;2023-04-06T09:23:45;11.20;99.90
26304;DHT22;57113;48.680;8.890;2023-04-06T09:26:13;11.20;99.90
26304;DHT22;57113;48.680;8.890;2023-04-06T09:31:07;11.20;99.90
26304;DHT22;57113;48.680;8.890;2023-04-06T09:33:37;11.20;99.90
26304;DHT22;57113;48.680;8.890;2023-04-06T09:36:03;11.20;99.90
26304;DHT22;57113;48.680;8.890;2023-04-06T09:38:29;11.20;99.90
26304;DHT22;57113;48.680;8.890;2023-04-06T09:40:55;11.20;99.90
26304;DHT22;57113;48.680;8.890;2023-04-06T09:43:26;11.20;99.90
26304;DHT22;57113;48.680;8.890;2023-04-06T09:45:52;11.20;99.90
26304;DHT22;57113;48.680;8.890;2023-04-06T09:48:20;11.20;99.90
26304;DHT22;57113;48.680;8.890;2023-04-06T09:50:50;11.20;99.90
26304;DHT22;57113;48.680;8.890;2023-04-06T09:53:19;11.20;99.90
26304;DHT22;57113;48.680;8.890;2023-04-06T09:55:46;11.20;99.90
26304;DHT22;57113;48.680;8.890;2023-04-06T09:58:16;11.30;99.90
26304;DHT22;57113;48.680;8.890;2023-04-06T10:00:55;11.30;99.90
26304;DHT22;57113;48.680;8.890;2023-04-06T10:06:14;11.30;99.90
26304;DHT22;57113;48.680;8.890;2023-04-06T10:08:41;11.30;99.90
26304;DHT22;57113;48.680;8.890;2023-04-06T10:11:09;11.30;99.90
26304;DHT22;57113;48.680;8.890;2023-04-06T10:13:36;11.30;99.90
26304;DHT22;57113;48.680;8.890;2023-04-06T10:16:03;11.30;99.90
26304;DHT22;57113;48.680;8.890;2023-04-06T10:18:29;11.30;99.90
26304;DHT22;57113;48.680;8.890;2023-04-06T10:21:09;11.40;99.90
26304;DHT22;57113;48.680;8.890;2023-04-06T10:23:43;11.30;99.90
26304;DHT22;57113;48.680;8.890;2023-04-06T10:26:14;11.30;99.90
26304;DHT22;57113;48.680;8.890;2023-04-06T10:28:43;11.40;99.90
26304;DHT22;57113;48.680;8.890;2023-04-06T10:31:09;11.40;99.90
26304;DHT22;57113;48.680;8.890;2023-04-06T10:33:35;11.40;99.90
26304;DHT22;57113;48.680;8.890;2023-04-06T10:36:14;11.40;99.90
26304;DHT22;57113;48.680;8.890;2023-04-06T10:38:41;11.40;99.90
26304;DHT22;57113;48.680;8.890;2023-04-06T10:41:09;11.40;99.90
26304;DHT22;57113;48.680;8.890;2023-04-06T10:43:37;11.40;99.90
26304;DHT22;57113;48.680;8.890;2023-04-06T10:46:04;11.50;99.90
26304;DHT22;57113;48.680;8.890;2023-04-06T10:48:56;11.50;99.90
26304;DHT22;57113;48.680;8.890;2023-04-06T10:51:27;11.50;99.90
26304;DHT22;57113;48.680;8.890;2023-04-06T10:53:54;11.50;99.90
26304;DHT22;57113;48.680;8.890;2023-04-06T10:56:23;11.50;99.90
26304;DHT22;57113;48.680;8.890;2023-04-06T10:58:51;11.50;99.90
26304;DHT22;57113;48.680;8.890;2023-04-06T11:01:18;11.50;99.90
26304;DHT22;57113;48.680;8.890;2023-04-06T11:03:44;11.50;99.90
26304;DHT22;57113;48.680;8.890;2023-04-06T11:06:11;11.50;99.90
26304;DHT22;57113;48.680;8.890;2023-04-06T11:08:42;11.50;99.90
26304;DHT22;57113;48.680;8.890;2023-04-06T11:11:11;11.60;99.90
26304;DHT22;57113;48.680;8.890;2023-04-06T11:13:44;11.60;99.90
26304;DHT22;57113;48.680;8.890;2023-04-06T11:16:27;11.60;99.90
26304;DHT22;57113;48.680;8.890;2023-04-06T11:18:58;11.60;99.90
26304;DHT22;57113;48.680;8.890;2023-04-06T11:24:13;11.60;99.90
26304;DHT22;57113;48.680;8.890;2023-04-06T11:29:23;11.60;99.90
26304;DHT22;57113;48.680;8.890;2023-04-06T11:31:53;11.70;99.90
26304;DHT22;57113;48.680;8.890;2023-04-06T11:34:21;11.60;99.90
26304;DHT22;57113;48.680;8.890;2023-04-06T11:36:48;11.70;99.90
26304;DHT22;57113;48.680;8.890;2023-04-06T11:39:19;11.70;99.90
26304;DHT22;57113;48.680;8.890;2023-04-06T11:41:54;11.70;99.90
26304;DHT22;57113;48.680;8.890;2023-04-06T11:44:40;11.70;99.90
26304;DHT22;57113;48.680;8.890;2023-04-06T11:47:07;11.70;99.90
26304;DHT22;57113;48.680;8.890;2023-04-06T11:49:37;11.70;99.90
26304;DHT22;57113;48.680;8.890;2023-04-06T11:52:13;11.70;99.90
26304;DHT22;57113;48.680;8.890;2023-04-06T11:54:39;11.70;99.90
26304;DHT22;57113;48.680;8.890;2023-04-06T11:57:07;11.80;99.90
26304;DHT22;57113;48.680;8.890;2023-04-06T11:59:33;11.70;99.90
26304;DHT22;57113;48.680;8.890;2023-04-06T12:01:59;11.70;99.90
26304;DHT22;57113;48.680;8.890;2023-04-06T12:04:26;11.70;99.90
26304;DHT22;57113;48.680;8.890;2023-04-06T12:06:52;11.70;99.90
26304;DHT22;57113;48.680;8.890;2023-04-06T12:09:18;11.70;99.90
26304;DHT22;57113;48.680;8.890;2023-04-06T12:11:43;11.80;99.90
26304;DHT22;57113;48.680;8.890;2023-04-06T12:14:10;11.80;99.90
26304;DHT22;57113;48.680;8.890;2023-04-06T12:16:36;11.80;99.90
26304;DHT22;57113;48.680;8.890;2023-04-06T12:19:02;11.80;99.90
26304;DHT22;57113;48.680;8.890;2023-04-06T12:21:29;11.80;99.90
26304;DHT22;57113;48.680;8.890;2023-04-06T12:23:59;11.80;99.90
26304;DHT22;57113;48.680;8.890;2023-04-06T12:26:26;11.80;99.90
26304;DHT22;57113;48.680;8.890;2023-04-06T12:28:53;11.80;99.90
26304;DHT22;57113;48.680;8.890;2023-04-06T12:31:20;11.80;99.90
26304;DHT22;57113;48.680;8.890;2023-04-06T12:33:50;11.80;99.90
26304;DHT22;57113;48.680;8.890;2023-04-06T12:36:17;11.80;99.90
26304;DHT22;57113;48.680;8.890;2023-04-06T12:38:50;11.80;99.90
26304;DHT22;57113;48.680;8.890;2023-04-06T12:41:17;11.80;99.90
26304;DHT22;57113;48.680;8.890;2023-04-06T12:43:43;11.80;99.90
26304;DHT22;57113;48.680;8.890;2023-04-06T12:46:10;11.90;99.90
26304;DHT22;57113;48.680;8.890;2023-04-06T12:48:36;11.80;99.90
26304;DHT22;57113;48.680;8.890;2023-04-06T12:51:04;11.80;99.90
26304;DHT22;57113;48.680;8.890;2023-04-06T12:53:30;11.90;99.90
26304;DHT22;57113;48.680;8.890;2023-04-06T12:55:57;11.80;99.90
26304;DHT22;57113;48.680;8.890;2023-04-06T12:58:23;11.90;99.90
26304;DHT22;57113;48.680;8.890;2023-04-06T13:00:50;11.90;99.90
26304;DHT22;57113;48.680;8.890;2023-04-06T13:03:17;11.90;99.90
26304;DHT22;57113;48.680;8.890;2023-04-06T13:06:01;11.80;99.90
26304;DHT22;57113;48.680;8.890;2023-04-06T13:08:27;11.90;99.90
26304;DHT22;57113;48.680;8.890;2023-04-06T13:10:53;11.90;99.90
26304;DHT22;57113;48.680;8.890;2023-04-06T13:13:29;11.80;99.90
26304;DHT22;57113;48.680;8.890;2023-04-06T13:15:59;11.90;99.90
26304;DHT22;57113;48.680;8.890;2023-04-06T13:18:26;11.80;99.90
26304;DHT22;57113;48.680;8.890;2023-04-06T13:20:52;11.90;99.60
26304;DHT22;57113;48.680;8.890;2023-04-06T13:23:18;11.80;99.40
26304;DHT22;57113;48.680;8.890;2023-04-06T13:25:43;11.80;99.30
26304;DHT22;57113;48.680;8.890;2023-04-06T13:28:10;11.80;99.40
26304;DHT22;57113;48.680;8.890;2023-04-06T13:30:35;11.90;99.40
26304;DHT22;57113;48.680;8.890;2023-04-06T13:33:02;11.80;99.40
26304;DHT22;57113;48.680;8.890;2023-04-06T13:35:27;11.80;99.50
26304;DHT22;57113;48.680;8.890;2023-04-06T13:37:53;11.80;99.60
26304;DHT22;57113;48.680;8.890;2023-04-06T13:40:19;11.80;99.70
26304;DHT22;57113;48.680;8.890;2023-04-06T13:42:44;11.80;99.70
26304;DHT22;57113;48.680;8.890;2023-04-06T13:45:11;11.80;99.80
26304;DHT22;57113;48.680;8.890;2023-04-06T13:47:37;11.80;99.90
26304;DHT22;57113;48.680;8.890;2023-04-06T13:50:03;11.80;99.90
26304;DHT22;57113;48.680;8.890;2023-04-06T13:52:29;11.80;99.90
26304;DHT22;57113;48.680;8.890;2023-04-06T13:54:55;11.80;99.90
26304;DHT22;57113;48.680;8.890;2023-04-06T13:57:21;11.80;99.90
26304;DHT22;57113;48.680;8.890;2023-04-06T13:59:46;11.80;99.90
26304;DHT22;57113;48.680;8.890;2023-04-06T14:02:12;11.80;99.90
26304;DHT22;57113;48.680;8.890;2023-04-06T14:04:39;11.80;99.90
26304;DHT22;57113;48.680;8.890;2023-04-06T14:07:05;11.80;99.90
26304;DHT22;57113;48.680;8.890;2023-04-06T14:09:32;11.80;99.90
26304;DHT22;57113;48.680;8.890;2023-04-06T14:11:58;11.80;99.90
26304;DHT22;57113;48.680;8.890;2023-04-06T14:14:24;11.80;99.90
26304;DHT22;57113;48.680;8.890;2023-04-06T14:16:51;11.80;99.90
26304;DHT22;57113;48.680;8.890;2023-04-06T14:19:17;11.80;99.90
26304;DHT22;57113;48.680;8.890;2023-04-06T14:21:50;11.80;99.90
26304;DHT22;57113;48.680;8.890;2023-04-06T14:24:17;11.80;99.90
26304;DHT22;57113;48.680;8.890;2023-04-06T14:26:43;11.80;99.90
26304;DHT22;57113;48.680;8.890;2023-04-06T14:29:09;11.90;99.90
26304;DHT22;57113;48.680;8.890;2023-04-06T14:31:35;11.80;99.90
26304;DHT22;57113;48.680;8.890;2023-04-06T14:34:02;11.90;99.90
26304;DHT22;57113;48.680;8.890;2023-04-06T14:36:28;11.90;99.90
26304;DHT22;57113;48.680;8.890;2023-04-06T14:38:58;11.90;99.90
26304;DHT22;57113;48.680;8.890;2023-04-06T14:41:24;11.90;99.90
26304;DHT22;57113;48.680;8.890;2023-04-06T14:43:50;11.90;99.90
26304;DHT22;57113;48.680;8.890;2023-04-06T14:46:18;11.90;99.90
26304;DHT22;57113;48.680;8.890;2023-04-06T14:48:44;11.90;99.90
26304;DHT22;57113;48.680;8.890;2023-04-06T14:51:10;11.90;99.90
26304;DHT22;57113;48.680;8.890;2023-04-06T14:53:37;11.90;99.90
26304;DHT22;57113;48.680;8.890;2023-04-06T14:56:02;11.90;99.90
26304;DHT22;57113;48.680;8.890;2023-04-06T14:58:28;11.90;99.90
26304;DHT22;57113;48.680;8.890;2023-04-06T15:00:58;11.90;99.90
26304;DHT22;57113;48.680;8.890;2023-04-06T15:03:25;11.90;99.90
26304;DHT22;57113;48.680;8.890;2023-04-06T15:05:54;11.90;99.90
26304;DHT22;57113;48.680;8.890;2023-04-06T15:08:21;11.90;99.90
26304;DHT22;57113;48.680;8.890;2023-04-06T15:10:48;11.90;99.90
26304;DHT22;57113;48.680;8.890;2023-04-06T15:13:13;11.90;99.90
26304;DHT22;57113;48.680;8.890;2023-04-06T15:15:40;11.90;99.90
26304;DHT22;57113;48.680;8.890;2023-04-06T15:18:07;11.90;99.90
26304;DHT22;57113;48.680;8.890;2023-04-06T15:20:33;11.90;99.90
26304;DHT22;57113;48.680;8.890;2023-04-06T15:23:00;11.90;99.90
26304;DHT22;57113;48.680;8.890;2023-04-06T15:25:26;11.90;99.90
26304;DHT22;57113;48.680;8.890;2023-04-06T15:27:51;11.90;99.90
26304;DHT22;57113;48.680;8.890;2023-04-06T15:30:17;11.90;99.90
26304;DHT22;57113;48.680;8.890;2023-04-06T15:32:58;11.90;99.90
26304;DHT22;57113;48.680;8.890;2023-04-06T15:35:26;11.90;99.90
26304;DHT22;57113;48.680;8.890;2023-04-06T15:37:53;11.90;99.90
26304;DHT22;57113;48.680;8.890;2023-04-06T15:40:18;11.90;99.90